createdAt,value
2023-03-29T00:00:32.554Z,100844.06
2023-03-29T00:03:35.352Z,100853.63
2023-03-29T00:06:38.666Z,100847.84
2023-03-29T00:09:42.554Z,100855.62
2023-03-29T00:12:44.989Z,100862.91
2023-03-29T00:15:47.728Z,100864.97
2023-03-29T00:18:50.637Z,100851.47
2023-03-29T00:21:53.389Z,100857.00
2023-03-29T00:24:55.824Z,100861.16
2023-03-29T00:27:58.490Z,100855.31
2023-03-29T00:31:06.346Z,100861.44
2023-03-29T00:34:09.125Z,100858.94
2023-03-29T00:37:12.561Z,100856.09
2023-03-29T00:40:15.707Z,100856.09
2023-03-29T00:43:18.179Z,100854.28
2023-03-29T00:46:21.340Z,100858.47
2023-03-29T00:49:23.772Z,100860.63
2023-03-29T00:52:30.389Z,100857.34
2023-03-29T00:55:38.943Z,100856.59
2023-03-29T00:58:49.657Z,100848.28
2023-03-29T01:01:57.362Z,100849.16
2023-03-29T01:05:10.101Z,100850.25
2023-03-29T01:08:25.717Z,100852.19
2023-03-29T01:11:36.336Z,100855.84
2023-03-29T01:14:59.564Z,100856.84
2023-03-29T01:18:02.458Z,100862.41
2023-03-29T01:21:14.845Z,100864.19
2023-03-29T01:24:26.419Z,100861.97
2023-03-29T01:27:43.969Z,100858.13
2023-03-29T01:30:54.531Z,100854.25
2023-03-29T01:34:10.639Z,100856.44
2023-03-29T01:37:17.808Z,100856.50
2023-03-29T01:40:20.479Z,100864.97
2023-03-29T01:43:23.203Z,100866.94
2023-03-29T01:46:44.539Z,100874.75
2023-03-29T01:50:09.285Z,100864.53
2023-03-29T01:53:35.687Z,100868.31
2023-03-29T01:56:42.503Z,100867.50
2023-03-29T01:59:47.518Z,100865.41
2023-03-29T02:02:53.497Z,100875.03
2023-03-29T02:05:58.257Z,100874.41
2023-03-29T02:09:04.051Z,100876.09
2023-03-29T02:12:09.056Z,100875.53
2023-03-29T02:15:15.289Z,100866.34
2023-03-29T02:18:19.896Z,100876.38
2023-03-29T02:21:31.672Z,100881.88
2023-03-29T02:24:36.897Z,100875.19
2023-03-29T02:27:39.970Z,100882.06
2023-03-29T02:30:48.604Z,100874.56
2023-03-29T02:34:01.349Z,100887.94
2023-03-29T02:37:11.820Z,100887.97
2023-03-29T02:40:16.089Z,100888.69
2023-03-29T02:43:19.968Z,100892.31
2023-03-29T02:46:24.043Z,100891.44
2023-03-29T02:49:27.190Z,100898.09
2023-03-29T02:52:37.257Z,100900.66
2023-03-29T02:55:39.732Z,100896.88
2023-03-29T02:58:42.448Z,100896.62
2023-03-29T03:01:45.197Z,100898.94
2023-03-29T03:04:48.343Z,100901.09
2023-03-29T03:07:51.563Z,100897.41
2023-03-29T03:10:54.289Z,100896.44
2023-03-29T03:13:57.119Z,100897.19
2023-03-29T03:17:00.700Z,100905.56
2023-03-29T03:20:08.782Z,100903.91
2023-03-29T03:23:12.127Z,100907.34
2023-03-29T03:26:15.935Z,100900.78
2023-03-29T03:29:19.101Z,100913.47
2023-03-29T03:32:23.240Z,100919.44
2023-03-29T03:35:27.245Z,100910.97
2023-03-29T03:38:31.071Z,100917.06
2023-03-29T03:41:35.019Z,100924.66
2023-03-29T03:44:38.058Z,100917.94
2023-03-29T03:47:41.355Z,100921.03
2023-03-29T03:50:51.270Z,100925.97
2023-03-29T03:53:54.291Z,100925.03
2023-03-29T03:56:59.780Z,100935.53
2023-03-29T04:00:13.830Z,100930.09
2023-03-29T04:03:18.439Z,100934.31
2023-03-29T04:06:20.859Z,100935.44
2023-03-29T04:09:26.497Z,100940.03
2023-03-29T04:12:29.865Z,100940.25
2023-03-29T04:15:34.229Z,100947.31
2023-03-29T04:18:38.759Z,100956.91
2023-03-29T04:21:42.867Z,100948.69
2023-03-29T04:24:45.835Z,100952.31
2023-03-29T04:27:51.560Z,100962.59
2023-03-29T04:30:56.910Z,100960.78
2023-03-29T04:34:03.644Z,100972.72
2023-03-29T04:37:10.651Z,100974.22
2023-03-29T04:40:14.999Z,100975.78
2023-03-29T04:43:18.441Z,100975.78
2023-03-29T04:46:22.642Z,100985.13
2023-03-29T04:49:26.345Z,100993.59
2023-03-29T04:52:33.140Z,100985.00
2023-03-29T04:55:35.870Z,100987.53
2023-03-29T04:58:39.557Z,100993.19
2023-03-29T05:01:42.542Z,101003.44
2023-03-29T05:04:45.362Z,101000.47
2023-03-29T05:07:48.195Z,101011.09
2023-03-29T05:10:52.039Z,101014.13
2023-03-29T05:13:57.258Z,101016.00
2023-03-29T05:17:01.456Z,101014.13
2023-03-29T05:20:11.234Z,101021.03
2023-03-29T05:23:14.249Z,101017.69
2023-03-29T05:26:22.387Z,101024.19
2023-03-29T05:29:25.373Z,101030.72
2023-03-29T05:32:28.959Z,101023.44
2023-03-29T05:35:32.227Z,101022.53
2023-03-29T05:38:35.924Z,101014.09
2023-03-29T05:41:38.918Z,101014.41
2023-03-29T05:44:44.084Z,101017.44
2023-03-29T05:47:46.961Z,101015.34
2023-03-29T05:50:50.664Z,101013.19
2023-03-29T05:53:53.703Z,101019.13
2023-03-29T05:56:56.452Z,101027.47
2023-03-29T05:59:59.101Z,101021.72
2023-03-29T06:03:10.082Z,101021.75
2023-03-29T06:06:21.446Z,101021.34
2023-03-29T06:09:24.018Z,101024.31
2023-03-29T06:12:33.285Z,101030.94
2023-03-29T06:15:37.115Z,101030.00
2023-03-29T06:18:41.217Z,101031.44
2023-03-29T06:21:43.652Z,101029.66
2023-03-29T06:24:47.935Z,101034.91
2023-03-29T06:27:52.145Z,101029.47
2023-03-29T06:30:56.517Z,101032.78
2023-03-29T06:34:01.737Z,101029.81
2023-03-29T06:37:06.664Z,101034.47
2023-03-29T06:40:10.250Z,101043.94
2023-03-29T06:43:14.506Z,101041.94
2023-03-29T06:46:17.972Z,101034.78
2023-03-29T06:49:21.767Z,101039.12
2023-03-29T06:52:25.276Z,101045.44
2023-03-29T06:55:28.799Z,101050.84
2023-03-29T06:58:31.450Z,101056.31
2023-03-29T07:01:35.523Z,101068.47
2023-03-29T07:04:38.863Z,101064.63
2023-03-29T07:07:55.294Z,101065.62
2023-03-29T07:10:59.639Z,101068.84
2023-03-29T07:14:05.305Z,101066.97
2023-03-29T07:17:07.903Z,101064.44
2023-03-29T07:20:13.945Z,101068.59
2023-03-29T07:23:18.089Z,101065.84
2023-03-29T07:26:29.002Z,101062.91
2023-03-29T07:29:33.145Z,101067.53
2023-03-29T07:32:36.519Z,101082.00
2023-03-29T07:35:43.502Z,101068.22
2023-03-29T07:38:46.327Z,101077.47
2023-03-29T07:41:49.453Z,101078.41
2023-03-29T07:44:54.317Z,101090.38
2023-03-29T07:47:58.905Z,101092.47
2023-03-29T07:51:03.292Z,101094.19
2023-03-29T07:54:06.767Z,101097.56
2023-03-29T07:57:12.398Z,101101.84
2023-03-29T08:00:16.507Z,101103.50
2023-03-29T08:03:20.842Z,101111.47
2023-03-29T08:06:26.613Z,101105.34
2023-03-29T08:09:29.678Z,101107.97
2023-03-29T08:12:32.560Z,101104.06
2023-03-29T08:15:39.166Z,101107.56
2023-03-29T08:18:42.647Z,101110.12
2023-03-29T08:21:45.610Z,101110.59
2023-03-29T08:24:49.316Z,101113.22
2023-03-29T08:27:52.177Z,101115.69
2023-03-29T08:30:57.284Z,101118.87
2023-03-29T08:34:00.139Z,101120.81
2023-03-29T08:37:05.150Z,101111.69
2023-03-29T08:40:17.023Z,101106.69
2023-03-29T08:43:58.080Z,101109.41
2023-03-29T08:47:10.474Z,101113.94
2023-03-29T08:50:14.817Z,101108.28
2023-03-29T08:53:23.207Z,101099.47
2023-03-29T08:56:31.464Z,101098.97
2023-03-29T08:59:37.745Z,101103.12
2023-03-29T09:02:43.757Z,101094.34
2023-03-29T09:05:51.274Z,101103.84
2023-03-29T09:08:54.981Z,101096.81
2023-03-29T09:12:07.803Z,101093.81
2023-03-29T09:15:24.500Z,101082.34
2023-03-29T09:18:41.322Z,101080.53
2023-03-29T09:22:10.622Z,101083.75
2023-03-29T09:25:50.741Z,101079.22
2023-03-29T09:29:15.520Z,101086.62
2023-03-29T09:32:28.997Z,101080.84
2023-03-29T09:35:39.284Z,101085.22
2023-03-29T09:38:46.548Z,101086.69
2023-03-29T09:41:58.839Z,101078.63
2023-03-29T09:45:08.706Z,101070.63
2023-03-29T09:48:17.587Z,101083.38
2023-03-29T09:51:25.003Z,101065.84
2023-03-29T09:54:27.886Z,101069.72
2023-03-29T09:57:34.660Z,101064.81
2023-03-29T10:00:37.799Z,101056.50
2023-03-29T10:03:41.628Z,101065.19
2023-03-29T10:06:50.589Z,101050.84
2023-03-29T10:09:56.136Z,101063.97
2023-03-29T10:13:06.093Z,101062.19
2023-03-29T10:16:17.239Z,101064.72
2023-03-29T10:19:28.196Z,101067.78
2023-03-29T10:22:38.013Z,101055.91
2023-03-29T10:25:42.593Z,101046.87
2023-03-29T10:28:46.141Z,101045.50
2023-03-29T10:31:49.398Z,101044.13
2023-03-29T10:34:53.753Z,101049.28
2023-03-29T10:37:59.328Z,101050.03
2023-03-29T10:41:10.605Z,101039.41
2023-03-29T10:44:31.589Z,101032.47
2023-03-29T10:47:36.426Z,101035.47
2023-03-29T10:50:39.122Z,101046.56
2023-03-29T10:53:42.438Z,101041.44
2023-03-29T10:56:53.863Z,101027.59
2023-03-29T11:00:18.509Z,101033.19
2023-03-29T11:03:51.958Z,101021.91
2023-03-29T11:07:12.941Z,101023.75
2023-03-29T11:10:28.464Z,101022.47
2023-03-29T11:13:53.023Z,101026.81
2023-03-29T11:17:01.493Z,101012.59
2023-03-29T11:20:13.173Z,101008.97
2023-03-29T11:23:35.454Z,101010.34
2023-03-29T11:26:38.142Z,101007.06
2023-03-29T11:30:06.475Z,101013.28
2023-03-29T11:33:33.873Z,100994.34
2023-03-29T11:36:51.729Z,100994.03
2023-03-29T11:39:54.476Z,100980.16
2023-03-29T11:43:00.611Z,100981.75
2023-03-29T11:46:20.551Z,100972.56
2023-03-29T11:49:43.905Z,100975.66
2023-03-29T11:52:54.203Z,100969.84
2023-03-29T11:56:03.064Z,100963.84
2023-03-29T11:59:13.978Z,100969.56
2023-03-29T12:02:25.293Z,100970.38
2023-03-29T12:05:44.230Z,100970.41
2023-03-29T12:08:56.115Z,100968.13
2023-03-29T12:12:15.136Z,100958.38
2023-03-29T12:15:21.544Z,100967.19
2023-03-29T12:18:32.895Z,100951.19
2023-03-29T12:21:36.721Z,100945.56
2023-03-29T12:24:43.589Z,100943.84
2023-03-29T12:28:08.985Z,100942.84
2023-03-29T12:31:31.651Z,100944.16
2023-03-29T12:34:42.113Z,100939.84
2023-03-29T12:38:02.560Z,100946.13
2023-03-29T12:41:19.864Z,100944.47
2023-03-29T12:44:26.036Z,100940.19
2023-03-29T12:47:39.794Z,100935.84
2023-03-29T12:50:54.986Z,100939.34
2023-03-29T12:54:21.219Z,100940.56
2023-03-29T12:57:42.711Z,100931.63
2023-03-29T13:00:45.639Z,100930.91
2023-03-29T13:04:01.824Z,100923.88
2023-03-29T13:07:05.950Z,100928.19
2023-03-29T13:10:10.446Z,100912.50
2023-03-29T13:13:21.092Z,100904.59
2023-03-29T13:16:33.247Z,100902.66
2023-03-29T13:19:41.492Z,100903.69
2023-03-29T13:22:55.963Z,100902.63
2023-03-29T13:26:17.558Z,100899.66
2023-03-29T13:29:26.243Z,100896.19
2023-03-29T13:32:49.216Z,100892.84
2023-03-29T13:35:57.461Z,100890.78
2023-03-29T13:39:05.452Z,100892.72
2023-03-29T13:42:24.422Z,100897.66
2023-03-29T13:45:29.636Z,100891.72
2023-03-29T13:48:35.209Z,100877.37
2023-03-29T13:51:42.102Z,100887.87
2023-03-29T13:54:58.098Z,100863.78
2023-03-29T13:58:45.345Z,100881.94
2023-03-29T14:01:58.157Z,100875.44
2023-03-29T14:05:04.275Z,100872.66
2023-03-29T14:08:27.361Z,100869.47
2023-03-29T14:11:31.254Z,100863.25
2023-03-29T14:14:40.522Z,100871.03
2023-03-29T14:18:00.267Z,100864.91
2023-03-29T14:21:03.954Z,100878.78
2023-03-29T14:24:12.912Z,100875.44
2023-03-29T14:27:16.218Z,100879.53
2023-03-29T14:30:22.580Z,100872.72
2023-03-29T14:33:34.400Z,100881.66
2023-03-29T14:36:38.503Z,100883.72
2023-03-29T14:39:41.530Z,100874.28
2023-03-29T14:42:45.185Z,100868.06
2023-03-29T14:45:48.876Z,100865.06
2023-03-29T14:48:52.297Z,100860.19
2023-03-29T14:51:55.305Z,100860.47
2023-03-29T14:55:02.029Z,100857.16
2023-03-29T14:58:20.019Z,100849.63
2023-03-29T15:01:25.847Z,100855.22
2023-03-29T15:04:37.628Z,100854.25
2023-03-29T15:07:43.459Z,100854.16
2023-03-29T15:10:46.096Z,100850.28
2023-03-29T15:13:51.068Z,100846.06
2023-03-29T15:16:58.884Z,100849.19
2023-03-29T15:20:12.325Z,100842.00
2023-03-29T15:23:14.679Z,100835.84
2023-03-29T15:26:23.415Z,100837.97
2023-03-29T15:29:35.360Z,100835.50
2023-03-29T15:32:38.870Z,100834.13
2023-03-29T15:35:49.571Z,100837.16
2023-03-29T15:38:52.312Z,100833.78
2023-03-29T15:41:56.908Z,100828.84
2023-03-29T15:44:59.678Z,100821.78
2023-03-29T15:48:04.938Z,100817.91
2023-03-29T15:51:09.304Z,100824.78
2023-03-29T15:54:11.656Z,100818.19
2023-03-29T15:57:16.216Z,100812.69
2023-03-29T16:00:21.180Z,100823.91
2023-03-29T16:03:24.745Z,100828.06
2023-03-29T16:06:27.436Z,100823.84
2023-03-29T16:09:30.812Z,100821.59
2023-03-29T16:12:35.730Z,100817.69
2023-03-29T16:15:38.486Z,100821.50
2023-03-29T16:18:40.845Z,100824.19
2023-03-29T16:21:44.981Z,100820.75
2023-03-29T16:24:47.410Z,100827.37
2023-03-29T16:27:51.257Z,100825.09
2023-03-29T16:30:53.718Z,100826.44
2023-03-29T16:33:56.677Z,100819.28
2023-03-29T16:36:59.104Z,100816.34
2023-03-29T16:40:01.809Z,100814.62
2023-03-29T16:43:04.623Z,100817.16
2023-03-29T16:46:09.312Z,100814.41
2023-03-29T16:49:18.061Z,100811.69
2023-03-29T16:52:21.328Z,100822.47
2023-03-29T16:55:23.749Z,100818.78
2023-03-29T16:58:27.270Z,100813.19
2023-03-29T17:01:29.769Z,100813.56
2023-03-29T17:04:32.506Z,100815.91
2023-03-29T17:07:35.459Z,100813.81
2023-03-29T17:10:40.807Z,100817.66
2023-03-29T17:13:43.527Z,100816.97
2023-03-29T17:16:46.512Z,100817.25
2023-03-29T17:19:49.022Z,100818.34
2023-03-29T17:22:53.966Z,100825.88
2023-03-29T17:25:56.434Z,100817.97
2023-03-29T17:28:59.649Z,100825.31
2023-03-29T17:32:02.102Z,100830.78
2023-03-29T17:35:05.057Z,100832.94
2023-03-29T17:38:07.521Z,100827.63
2023-03-29T17:41:10.293Z,100836.72
2023-03-29T17:44:12.687Z,100838.19
2023-03-29T17:47:15.479Z,100834.31
2023-03-29T17:50:18.077Z,100833.50
2023-03-29T17:53:21.580Z,100842.09
2023-03-29T17:56:24.672Z,100842.56
2023-03-29T17:59:27.284Z,100849.84
2023-03-29T18:02:29.790Z,100850.69
2023-03-29T18:05:33.654Z,100851.78
2023-03-29T18:08:36.181Z,100843.91
2023-03-29T18:11:39.207Z,100855.28
2023-03-29T18:14:41.556Z,100850.69
2023-03-29T18:17:44.741Z,100858.09
2023-03-29T18:20:47.176Z,100858.78
2023-03-29T18:23:52.849Z,100862.34
2023-03-29T18:26:56.185Z,100865.22
2023-03-29T18:30:00.040Z,100867.31
2023-03-29T18:33:02.564Z,100864.94
2023-03-29T18:36:10.872Z,100876.03
2023-03-29T18:39:15.285Z,100871.00
2023-03-29T18:42:17.978Z,100884.81
2023-03-29T18:45:21.459Z,100880.19
2023-03-29T18:48:24.444Z,100878.47
2023-03-29T18:51:28.245Z,100878.81
2023-03-29T18:54:31.106Z,100884.75
2023-03-29T18:57:33.626Z,100890.31
2023-03-29T19:00:37.604Z,100889.94
2023-03-29T19:03:40.874Z,100886.28
2023-03-29T19:06:43.662Z,100881.78
2023-03-29T19:09:46.069Z,100880.63
2023-03-29T19:12:49.001Z,100884.50
2023-03-29T19:15:51.987Z,100884.50
2023-03-29T19:18:54.973Z,100885.94
2023-03-29T19:22:00.394Z,100888.50
2023-03-29T19:25:04.923Z,100893.41
2023-03-29T19:28:07.371Z,100888.50
2023-03-29T19:31:11.341Z,100896.44
2023-03-29T19:34:13.839Z,100895.34
2023-03-29T19:37:17.657Z,100884.44
2023-03-29T19:40:21.061Z,100890.25
2023-03-29T19:43:24.942Z,100893.78
2023-03-29T19:46:29.045Z,100892.38
2023-03-29T19:49:33.961Z,100894.19
2023-03-29T19:52:36.460Z,100888.56
2023-03-29T19:55:39.622Z,100889.38
2023-03-29T19:58:42.161Z,100893.59
2023-03-29T20:01:50.989Z,100890.94
2023-03-29T20:04:55.175Z,100892.09
2023-03-29T20:07:57.570Z,100893.00
2023-03-29T20:11:03.492Z,100883.97
2023-03-29T20:14:06.312Z,100884.06
2023-03-29T20:17:09.404Z,100894.81
2023-03-29T20:20:13.999Z,100887.13
2023-03-29T20:23:17.243Z,100879.59
2023-03-29T20:26:19.627Z,100884.78
2023-03-29T20:29:22.354Z,100884.59
2023-03-29T20:32:24.709Z,100882.56
2023-03-29T20:35:27.526Z,100880.09
2023-03-29T20:38:30.152Z,100884.78
2023-03-29T20:41:33.883Z,100880.22
2023-03-29T20:44:36.675Z,100873.69
2023-03-29T20:47:42.492Z,100871.00
2023-03-29T20:50:48.386Z,100870.34
2023-03-29T20:53:50.981Z,100866.97
2023-03-29T20:56:54.905Z,100865.28
2023-03-29T20:59:57.835Z,100867.09
2023-03-29T21:03:00.751Z,100873.94
2023-03-29T21:06:03.876Z,100875.66
2023-03-29T21:09:06.294Z,100860.91
2023-03-29T21:12:09.039Z,100855.09
2023-03-29T21:15:13.463Z,100859.00
2023-03-29T21:18:16.200Z,100858.34
2023-03-29T21:21:18.668Z,100857.53
2023-03-29T21:24:22.110Z,100851.06
2023-03-29T21:27:24.558Z,100856.47
2023-03-29T21:30:28.374Z,100862.62
2023-03-29T21:33:32.637Z,100863.78
2023-03-29T21:36:35.418Z,100867.59
2023-03-29T21:39:37.973Z,100870.53
2023-03-29T21:42:40.621Z,100874.13
2023-03-29T21:45:42.993Z,100873.06
2023-03-29T21:48:45.633Z,100868.84
2023-03-29T21:51:48.077Z,100868.97
2023-03-29T21:54:50.906Z,100867.84
2023-03-29T21:57:53.355Z,100860.63
2023-03-29T22:00:57.284Z,100864.09
2023-03-29T22:03:59.973Z,100861.41
2023-03-29T22:07:02.817Z,100863.81
2023-03-29T22:10:11.722Z,100856.31
2023-03-29T22:13:14.101Z,100861.28
2023-03-29T22:16:18.270Z,100864.16
2023-03-29T22:19:20.746Z,100865.59
2023-03-29T22:22:24.508Z,100865.38
2023-03-29T22:25:27.118Z,100863.19
2023-03-29T22:28:29.727Z,100860.56
2023-03-29T22:31:32.080Z,100868.47
2023-03-29T22:34:34.723Z,100861.25
2023-03-29T22:37:41.977Z,100868.19
2023-03-29T22:40:44.672Z,100854.75
2023-03-29T22:43:47.497Z,100859.91
2023-03-29T22:46:50.492Z,100854.97
2023-03-29T22:49:52.921Z,100855.69
2023-03-29T22:52:56.038Z,100858.78
2023-03-29T22:55:58.451Z,100856.53
2023-03-29T22:59:01.252Z,100858.25
2023-03-29T23:02:03.623Z,100861.47
2023-03-29T23:05:07.039Z,100864.19
2023-03-29T23:08:09.607Z,100877.37
2023-03-29T23:11:12.373Z,100863.59
2023-03-29T23:14:14.948Z,100869.06
2023-03-29T23:17:19.243Z,100866.53
2023-03-29T23:20:21.564Z,100865.13
2023-03-29T23:23:25.719Z,100870.31
2023-03-29T23:26:28.289Z,100860.13
2023-03-29T23:29:31.001Z,100864.72
2023-03-29T23:32:33.537Z,100858.78
2023-03-29T23:35:37.677Z,100851.09
2023-03-29T23:38:42.312Z,100857.91
2023-03-29T23:41:45.076Z,100855.41
2023-03-29T23:44:47.380Z,100856.25
2023-03-29T23:47:49.984Z,100855.56
2023-03-29T23:50:52.807Z,100858.72
2023-03-29T23:53:56.494Z,100850.47
2023-03-29T23:57:00.264Z,100844.59
